Time;durP1;ratioP1;P1;durP2;ratioP2;P2;SDS_P1;SDS_P2;PMS_P1;PMS_P2;Temp;Humidity;BMP_temperature;BMP_pressure;BME280_temperature;BME280_humidity;BME280_pressure;Samples;Min_cycle;Max_cycle;Signal;HPM_P1;HPM_P2
2023/03/07 00:00:11;;;;;;;;;;;;;;;;;;4960582;28;19972;-92
2023/03/07 00:02:38;;;;;;;;;;;;;;;;;;4976754;28;19929;-91
2023/03/07 00:05:04;;;;;;;;;;;;;;;;;;4960398;28;19921;-91
2023/03/07 00:07:30;;;;;;;;;;;;;;;;;;4960227;28;20417;-91
2023/03/07 00:09:56;;;;;;;;;;;;;;;;;;4960457;28;19961;-91
2023/03/07 00:12:22;;;;;;;;;;;;;;;;;;4960458;28;19972;-93
2023/03/07 00:14:48;;;;;;;;;;;;;;;;;;4976489;28;19993;-92
2023/03/07 00:17:14;;;;;;;;;;;;;;;;;;4960319;28;19988;-91
2023/03/07 00:19:40;;;;;;;;;;;;;;;;;;4976472;28;19922;-92
2023/03/07 00:22:06;;;;;;;;;;;;;;;;;;4960236;28;20374;-90
2023/03/07 00:24:31;;;;;;;;;;;;;;;;;;4976380;28;19922;-92
2023/03/07 00:26:57;;;;;;;;;;;;;;;;;;4960281;28;19922;-92
2023/03/07 00:29:23;;;;;;;;;;;;;;;;;;4960416;28;19922;-91
2023/03/07 00:31:49;;;;;;;;;;;;;;;;;;4959940;28;20370;-90
2023/03/07 00:34:15;;;;;;;;;;;;;;;;;;4960057;28;19932;-91
2023/03/07 00:36:41;;;;;;;;;;;;;;;;;;4959814;28;20121;-91
2023/03/07 00:39:07;;;;;;;;;;;;;;;;;;4959774;28;19922;-91
2023/03/07 00:41:33;;;;;;;;;;;;;;;;;;4976211;28;19921;-91
2023/03/07 00:43:59;;;;;;;;;;;;;;;;;;4960106;28;19921;-91
2023/03/07 00:46:28;;;;;;;;;;;;;;;;;;4959965;28;19922;-91
2023/03/07 00:48:54;;;;;;;;;;;;;;;;;;4960026;28;19964;-91
2023/03/07 00:51:20;;;;;;;;;;;;;;;;;;4976028;28;19965;-91
2023/03/07 00:53:46;;;;;;;;;;;;;;;;;;4961714;28;19929;-91
2023/03/07 00:56:12;;;;;;;;;;;;;;;;;;4980149;28;19964;-91
2023/03/07 00:58:38;;;;;;;;;;;;;;;;;;4979893;28;19929;-91
2023/03/07 01:01:04;;;;;;;;;;;;;;;;;;4964001;28;19922;-93
2023/03/07 01:03:31;;;;;;;;;;;;;;;;;;4980149;28;19922;-92
2023/03/07 01:05:57;;;;;;;;;;;;;;;;;;4964055;28;19961;-92
2023/03/07 01:08:23;;;;;;;;;;;;;;;;;;4980282;28;20209;-93
2023/03/07 01:10:49;;;;;;;;;;;;;;;;;;4963973;28;19922;-92
2023/03/07 01:13:15;;;;;;;;;;;;;;;;;;4980180;28;19933;-93
2023/03/07 01:15:41;;;;;;;;;;;;;;;;;;4963904;28;20298;-92
2023/03/07 01:18:07;;;;;;;;;;;;;;;;;;4964334;28;20363;-92
2023/03/07 01:20:33;;;;;;;;;;;;;;;;;;4980107;28;20334;-92
2023/03/07 01:22:59;;;;;;;;;;;;;;;;;;4964035;28;20393;-92
2023/03/07 01:25:25;;;;;;;;;;;;;;;;;;4980357;28;19922;-93
2023/03/07 01:27:51;;;;;;;;;;;;;;;;;;4980409;28;19922;-93
2023/03/07 01:30:17;;;;;;;;;;;;;;;;;;4980062;28;19928;-92
2023/03/07 01:32:43;;;;;;;;;;;;;;;;;;4980521;28;20371;-93
2023/03/07 01:35:09;;;;;;;;;;;;;;;;;;4980077;28;19933;-93
2023/03/07 01:37:35;;;;;;;;;;;;;;;;;;4963993;28;19922;-93
2023/03/07 01:40:01;;;;;;;;;;;;;;;;;;4963754;28;20021;-94
2023/03/07 01:42:27;;;;;;;;;;;;;;;;;;4963840;28;19968;-93
2023/03/07 01:44:53;;;;;;;;;;;;;;;;;;4963950;28;19929;-93
2023/03/07 01:47:21;;;;;;;;;;;;;;;;;;4963829;28;19922;-93
2023/03/07 01:49:47;;;;;;;;;;;;;;;;;;4963262;28;19936;-93
2023/03/07 01:52:13;;;;;;;;;;;;;;;;;;4963311;28;19922;-93
2023/03/07 01:54:39;;;;;;;;;;;;;;;;;;4979395;28;20016;-93
2023/03/07 01:57:05;;;;;;;;;;;;;;;;;;4963403;28;20351;-94
2023/03/07 01:59:32;;;;;;;;;;;;;;;;;;4963470;28;20294;-93
2023/03/07 02:01:58;;;;;;;;;;;;;;;;;;4979352;28;19944;-93
2023/03/07 02:04:24;;;;;;;;;;;;;;;;;;4962844;28;20012;-93
2023/03/07 02:06:50;;;;;;;;;;;;;;;;;;4962902;28;19968;-93
2023/03/07 02:09:16;;;;;;;;;;;;;;;;;;4979567;28;19991;-93
2023/03/07 02:11:42;;;;;;;;;;;;;;;;;;4962995;28;19922;-94
2023/03/07 02:14:10;;;;;;;;;;;;;;;;;;4963317;28;19929;-93
2023/03/07 02:16:37;;;;;;;;;;;;;;;;;;4962497;28;19926;-93
2023/03/07 02:19:03;;;;;;;;;;;;;;;;;;4962878;28;20367;-92
2023/03/07 02:21:29;;;;;;;;;;;;;;;;;;4962150;28;19933;-92
2023/03/07 02:23:55;;;;;;;;;;;;;;;;;;4978071;28;19922;-92
2023/03/07 02:26:21;;;;;;;;;;;;;;;;;;4962255;28;19921;-91
2023/03/07 02:28:46;;;;;;;;;;;;;;;;;;4963235;28;19932;-91
2023/03/07 02:31:12;;;;;;;;;;;;;;;;;;4962647;28;20402;-91
2023/03/07 02:33:38;;;;;;;;;;;;;;;;;;4961759;28;20008;-92
2023/03/07 02:36:04;;;;;;;;;;;;;;;;;;4978339;28;19926;-91
2023/03/07 02:38:30;;;;;;;;;;;;;;;;;;4962541;28;20336;-92
2023/03/07 02:40:56;;;;;;;;;;;;;;;;;;4962047;28;19943;-91
2023/03/07 02:43:22;;;;;;;;;;;;;;;;;;4977869;28;20370;-91
2023/03/07 02:45:48;;;;;;;;;;;;;;;;;;4978120;28;20339;-91
2023/03/07 02:48:14;;;;;;;;;;;;;;;;;;4961836;28;19976;-91
2023/03/07 02:50:40;;;;;;;;;;;;;;;;;;4978070;28;19972;-91
2023/03/07 02:53:06;;;;;;;;;;;;;;;;;;4961904;28;19922;-91
2023/03/07 02:55:32;;;;;;;;;;;;;;;;;;4978120;28;19926;-91
2023/03/07 02:57:58;;;;;;;;;;;;;;;;;;4977878;28;19980;-94
2023/03/07 03:00:24;;;;;;;;;;;;;;;;;;4961918;28;20387;-92
2023/03/07 03:02:50;;;;;;;;;;;;;;;;;;4961361;28;20467;-90
2023/03/07 03:05:17;;;;;;;;;;;;;;;;;;4961750;28;19992;-92
2023/03/07 03:07:43;;;;;;;;;;;;;;;;;;4978276;28;19926;-93
2023/03/07 03:10:09;;;;;;;;;;;;;;;;;;4962180;28;19922;-93
2023/03/07 03:12:35;;;;;;;;;;;;;;;;;;4962050;28;19969;-94
2023/03/07 03:15:01;;;;;;;;;;;;;;;;;;4961892;28;19926;-93
2023/03/07 03:17:27;;;;;;;;;;;;;;;;;;4977942;28;19922;-93
2023/03/07 03:19:53;;;;;;;;;;;;;;;;;;4962094;28;20012;-93
2023/03/07 03:22:24;;;;;;;;;;;;;;;;;;4978880;28;20302;-94
2023/03/07 03:24:50;;;;;;;;;;;;;;;;;;4962220;28;19929;-94
2023/03/07 03:27:16;;;;;;;;;;;;;;;;;;4962223;28;19925;-94
2023/03/07 03:29:42;;;;;;;;;;;;;;;;;;4962130;28;19922;-94
2023/03/07 03:32:08;;;;;;;;;;;;;;;;;;4961935;28;20008;-94
2023/03/07 03:34:33;;;;;;;;;;;;;;;;;;4962159;28;19973;-93
2023/03/07 03:36:59;;;;;;;;;;;;;;;;;;4961879;28;19976;-92
2023/03/07 03:39:25;;;;;;;;;;;;;;;;;;4961550;28;19926;-93
2023/03/07 03:41:51;;;;;;;;;;;;;;;;;;4977749;28;19928;-92
2023/03/07 03:44:20;;;;;;;;;;;;;;;;;;4961631;28;19921;-95
2023/03/07 03:46:46;;;;;;;;;;;;;;;;;;4961613;28;19922;-94
2023/03/07 03:49:12;;;;;;;;;;;;;;;;;;4962031;28;19922;-93
2023/03/07 03:51:38;;;;;;;;;;;;;;;;;;4961781;28;20286;-93
2023/03/07 03:54:04;;;;;;;;;;;;;;;;;;4961356;28;19922;-93
2023/03/07 03:56:30;;;;;;;;;;;;;;;;;;4961049;28;19925;-94
2023/03/07 03:58:56;;;;;;;;;;;;;;;;;;4961148;28;19926;-93
2023/03/07 04:01:22;;;;;;;;;;;;;;;;;;4961342;28;19983;-94
2023/03/07 04:03:48;;;;;;;;;;;;;;;;;;4960828;28;20019;-93
2023/03/07 04:06:14;;;;;;;;;;;;;;;;;;4960528;28;19921;-91
2023/03/07 04:08:39;;;;;;;;;;;;;;;;;;4976535;28;20271;-92
2023/03/07 04:11:05;;;;;;;;;;;;;;;;;;4976640;28;19926;-91
2023/03/07 04:13:31;;;;;;;;;;;;;;;;;;4960220;28;19922;-91
2023/03/07 04:15:57;;;;;;;;;;;;;;;;;;4960294;28;20343;-91
2023/03/07 04:18:26;;;;;;;;;;;;;;;;;;4976465;28;19932;-90
2023/03/07 04:20:52;;;;;;;;;;;;;;;;;;4976152;28;20013;-91
2023/03/07 04:23:18;;;;;;;;;;;;;;;;;;4976247;28;19965;-91
2023/03/07 04:25:44;;;;;;;;;;;;;;;;;;4959897;28;19922;-90
2023/03/07 04:28:10;;;;;;;;;;;;;;;;;;4975471;28;19926;-91
2023/03/07 04:30:36;;;;;;;;;;;;;;;;;;4976145;28;19979;-91
2023/03/07 04:33:01;;;;;;;;;;;;;;;;;;4976145;28;20374;-91
2023/03/07 04:35:27;;;;;;;;;;;;;;;;;;4959808;28;19925;-91
2023/03/07 04:37:53;;;;;;;;;;;;;;;;;;4975960;28;19922;-91
2023/03/07 04:40:19;;;;;;;;;;;;;;;;;;4976045;28;20371;-91
2023/03/07 04:42:45;;;;;;;;;;;;;;;;;;4960182;28;19926;-91
2023/03/07 04:45:11;;;;;;;;;;;;;;;;;;4976434;28;19926;-92
2023/03/07 04:47:37;;;;;;;;;;;;;;;;;;4976008;28;20028;-92
2023/03/07 04:50:03;;;;;;;;;;;;;;;;;;4976400;28;19965;-91
2023/03/07 04:52:29;;;;;;;;;;;;;;;;;;4959874;28;19921;-91
2023/03/07 04:54:55;;;;;;;;;;;;;;;;;;4959471;28;19925;-91
2023/03/07 04:57:21;;;;;;;;;;;;;;;;;;4959622;28;19964;-91
2023/03/07 04:59:46;;;;;;;;;;;;;;;;;;4959717;28;20355;-91
2023/03/07 05:02:12;;;;;;;;;;;;;;;;;;4959925;28;19928;-91
2023/03/07 05:04:38;;;;;;;;;;;;;;;;;;4975956;28;19922;-91
2023/03/07 05:07:04;;;;;;;;;;;;;;;;;;4959630;28;19922;-92
2023/03/07 05:09:30;;;;;;;;;;;;;;;;;;4959686;28;19922;-91
2023/03/07 05:11:56;;;;;;;;;;;;;;;;;;4959706;28;19999;-92
2023/03/07 05:14:22;;;;;;;;;;;;;;;;;;4959662;28;20324;-91
2023/03/07 05:16:48;;;;;;;;;;;;;;;;;;4959784;28;19933;-91
2023/03/07 05:19:14;;;;;;;;;;;;;;;;;;4959837;28;19922;-92
2023/03/07 05:21:40;;;;;;;;;;;;;;;;;;4959581;28;20004;-91
2023/03/07 05:24:06;;;;;;;;;;;;;;;;;;4959762;28;19926;-92
2023/03/07 05:26:32;;;;;;;;;;;;;;;;;;4959877;28;19921;-91
2023/03/07 05:28:58;;;;;;;;;;;;;;;;;;4975602;28;19921;-91
2023/03/07 05:31:24;;;;;;;;;;;;;;;;;;4959529;28;19925;-91
2023/03/07 05:33:50;;;;;;;;;;;;;;;;;;4975773;28;19921;-92
2023/03/07 05:36:16;;;;;;;;;;;;;;;;;;4959754;28;20000;-92
2023/03/07 05:38:42;;;;;;;;;;;;;;;;;;4975892;28;20390;-93
2023/03/07 05:41:08;;;;;;;;;;;;;;;;;;4978045;28;20444;-92
2023/03/07 05:43:33;;;;;;;;;;;;;;;;;;4963613;28;20570;-92
2023/03/07 05:45:59;;;;;;;;;;;;;;;;;;4963852;28;19922;-92
2023/03/07 05:48:25;;;;;;;;;;;;;;;;;;4963154;28;19926;-92
2023/03/07 05:50:51;;;;;;;;;;;;;;;;;;4963561;28;19922;-92
2023/03/07 05:53:17;;;;;;;;;;;;;;;;;;4963866;28;19922;-93
2023/03/07 05:55:43;;;;;;;;;;;;;;;;;;4979489;28;20053;-92
2023/03/07 05:58:09;;;;;;;;;;;;;;;;;;4962874;28;20005;-92
2023/03/07 06:00:35;;;;;;;;;;;;;;;;;;4963119;28;20346;-92
2023/03/07 06:03:01;;;;;;;;;;;;;;;;;;4963091;28;19925;-92
2023/03/07 06:05:27;;;;;;;;;;;;;;;;;;4962878;28;19922;-92
2023/03/07 06:07:53;;;;;;;;;;;;;;;;;;4978916;28;20009;-92
2023/03/07 06:10:22;;;;;;;;;;;;;;;;;;4978886;28;19922;-93
2023/03/07 06:12:51;;;;;;;;;;;;;;;;;;4963199;28;19929;-92
2023/03/07 06:15:17;;;;;;;;;;;;;;;;;;4962984;28;20008;-94
2023/03/07 06:17:43;;;;;;;;;;;;;;;;;;4963462;28;20004;-95
2023/03/07 06:20:08;;;;;;;;;;;;;;;;;;4962984;28;19961;-93
2023/03/07 06:22:37;;;;;;;;;;;;;;;;;;4963906;28;20393;-94
2023/03/07 06:25:03;;;;;;;;;;;;;;;;;;4963095;28;20287;-93
2023/03/07 06:27:28;;;;;;;;;;;;;;;;;;4963852;28;19922;-93
2023/03/07 06:29:54;;;;;;;;;;;;;;;;;;4963528;28;19922;-93
2023/03/07 06:32:20;;;;;;;;;;;;;;;;;;4963173;28;19921;-94
2023/03/07 06:34:46;;;;;;;;;;;;;;;;;;4962633;28;19930;-94
2023/03/07 06:37:12;;;;;;;;;;;;;;;;;;4963332;28;19932;-95
2023/03/07 06:39:38;;;;;;;;;;;;;;;;;;4963337;28;20381;-92
2023/03/07 06:42:04;;;;;;;;;;;;;;;;;;4962599;28;19980;-95
2023/03/07 06:44:32;;;;;;;;;;;;;;;;;;4963108;28;19928;-95
2023/03/07 06:46:58;;;;;;;;;;;;;;;;;;4962734;28;19928;-93
2023/03/07 06:49:24;;;;;;;;;;;;;;;;;;4962726;28;19922;-93
2023/03/07 06:51:50;;;;;;;;;;;;;;;;;;4961815;28;19929;-94
2023/03/07 06:54:16;;;;;;;;;;;;;;;;;;4962688;28;19922;-92
2023/03/07 06:56:42;;;;;;;;;;;;;;;;;;4962604;28;19937;-94
2023/03/07 06:59:09;;;;;;;;;;;;;;;;;;4979435;28;19922;-96
2023/03/07 07:01:38;;;;;;;;;;;;;;;;;;4962982;28;19922;-94
2023/03/07 07:04:04;;;;;;;;;;;;;;;;;;4962132;28;19921;-94
2023/03/07 07:06:30;;;;;;;;;;;;;;;;;;4978014;28;19922;-91
2023/03/07 07:08:56;;;;;;;;;;;;;;;;;;4961810;28;20005;-90
2023/03/07 07:11:22;;;;;;;;;;;;;;;;;;4977513;28;19922;-89
2023/03/07 07:13:49;;;;;;;;;;;;;;;;;;4964471;28;20020;-90
2023/03/07 07:16:15;;;;;;;;;;;;;;;;;;4965492;28;19949;-92
2023/03/07 07:18:41;;;;;;;;;;;;;;;;;;4975154;28;19926;-91
2023/03/07 07:21:07;;;;;;;;;;;;;;;;;;4982504;28;19976;-92
2023/03/07 07:23:33;;;;;;;;;;;;;;;;;;4969305;28;19976;-92
2023/03/07 07:25:59;;;;;;;;;;;;;;;;;;4961387;28;19922;-91
2023/03/07 07:28:25;;;;;;;;;;;;;;;;;;4961785;28;20016;-92
2023/03/07 07:30:50;;;;;;;;;;;;;;;;;;4961703;28;19922;-95
2023/03/07 07:33:17;;;;;;;;;;;;;;;;;;4977900;28;20290;-91
2023/03/07 07:35:43;;;;;;;;;;;;;;;;;;4978581;28;20020;-91
2023/03/07 07:38:09;;;;;;;;;;;;;;;;;;4961343;28;19976;-94
2023/03/07 07:40:35;;;;;;;;;;;;;;;;;;4961217;28;19929;-91
2023/03/07 07:43:01;;;;;;;;;;;;;;;;;;4977793;28;19933;-94
2023/03/07 07:45:48;;;;;;;;;;;;;;;;;;4962416;28;19922;-96
2023/03/07 07:48:22;;;;;;;;;;;;;;;;;;4993861;28;20012;-94
2023/03/07 07:50:48;;;;;;;;;;;;;;;;;;4962486;28;19973;-95
2023/03/07 07:53:17;;;;;;;;;;;;;;;;;;4963474;28;19922;-91
2023/03/07 07:55:43;;;;;;;;;;;;;;;;;;4960615;28;19926;-92
2023/03/07 07:58:09;;;;;;;;;;;;;;;;;;4960784;28;19929;-93
2023/03/07 08:00:38;;;;;;;;;;;;;;;;;;4960955;28;19922;-90
2023/03/07 08:03:04;;;;;;;;;;;;;;;;;;4960030;28;20379;-92
2023/03/07 08:05:30;;;;;;;;;;;;;;;;;;4961000;28;19991;-90
2023/03/07 08:07:56;;;;;;;;;;;;;;;;;;4963611;28;19948;-92
2023/03/07 08:10:22;;;;;;;;;;;;;;;;;;4975426;28;19928;-93
2023/03/07 08:12:51;;;;;;;;;;;;;;;;;;4977490;28;19921;-93
2023/03/07 08:15:18;;;;;;;;;;;;;;;;;;4992862;28;20065;-92
2023/03/07 08:17:44;;;;;;;;;;;;;;;;;;4977101;28;19929;-91
2023/03/07 08:20:10;;;;;;;;;;;;;;;;;;4960643;28;19922;-91
2023/03/07 08:22:36;;;;;;;;;;;;;;;;;;4960561;28;20270;-91
2023/03/07 08:25:02;;;;;;;;;;;;;;;;;;4960563;28;20278;-90
2023/03/07 08:27:28;;;;;;;;;;;;;;;;;;4960369;28;19987;-90
2023/03/07 08:29:54;;;;;;;;;;;;;;;;;;4976108;28;19929;-91
2023/03/07 08:32:20;;;;;;;;;;;;;;;;;;4960234;28;20021;-90
2023/03/07 08:34:48;;;;;;;;;;;;;;;;;;4975211;28;22254;-91
2023/03/07 08:37:14;;;;;;;;;;;;;;;;;;4976438;28;20035;-91
2023/03/07 08:39:40;;;;;;;;;;;;;;;;;;4960481;28;19929;-93
2023/03/07 08:42:06;;;;;;;;;;;;;;;;;;4960466;28;20344;-92
2023/03/07 08:44:32;;;;;;;;;;;;;;;;;;4959836;28;20358;-89
2023/03/07 08:46:57;;;;;;;;;;;;;;;;;;4976200;28;19910;-90
2023/03/07 08:49:23;;;;;;;;;;;;;;;;;;4975720;28;19922;-89
2023/03/07 08:51:49;;;;;;;;;;;;;;;;;;4959676;28;19921;-90
2023/03/07 08:54:15;;;;;;;;;;;;;;;;;;4959686;28;19925;-93
2023/03/07 08:56:41;;;;;;;;;;;;;;;;;;4960105;28;20017;-92
2023/03/07 08:59:07;;;;;;;;;;;;;;;;;;4960034;28;20436;-92
2023/03/07 09:01:33;;;;;;;;;;;;;;;;;;4975993;28;20278;-93
2023/03/07 09:03:59;;;;;;;;;;;;;;;;;;4960785;28;20004;-92
2023/03/07 09:06:26;;;;;;;;;;;;;;;;;;4960049;28;19922;-92
2023/03/07 09:08:52;;;;;;;;;;;;;;;;;;4960184;28;19944;-92
2023/03/07 09:11:20;;;;;;;;;;;;;;;;;;4959726;28;20373;-92
2023/03/07 09:13:46;;;;;;;;;;;;;;;;;;4960106;28;19922;-91
2023/03/07 09:16:12;;;;;;;;;;;;;;;;;;4979551;28;20049;-92
2023/03/07 09:18:38;;;;;;;;;;;;;;;;;;4963595;28;19926;-92
2023/03/07 09:21:04;;;;;;;;;;;;;;;;;;4963969;28;19922;-92
2023/03/07 09:23:29;;;;;;;;;;;;;;;;;;4981010;28;19969;-92
2023/03/07 09:25:55;;;;;;;;;;;;;;;;;;4963573;28;19926;-93
2023/03/07 09:28:21;;;;;;;;;;;;;;;;;;4963485;28;19973;-93
2023/03/07 09:30:47;;;;;;;;;;;;;;;;;;4963507;28;19975;-92
2023/03/07 09:33:13;;;;;;;;;;;;;;;;;;4963426;28;19973;-93
2023/03/07 09:35:39;;;;;;;;;;;;;;;;;;4963775;28;20024;-93
2023/03/07 09:38:05;;;;;;;;;;;;;;;;;;4963680;28;20290;-92
2023/03/07 09:40:31;;;;;;;;;;;;;;;;;;4963949;28;19922;-92
2023/03/07 09:42:57;;;;;;;;;;;;;;;;;;4979020;28;19922;-92
2023/03/07 09:45:26;;;;;;;;;;;;;;;;;;4963593;28;19929;-92
2023/03/07 09:47:53;;;;;;;;;;;;;;;;;;4963135;28;19969;-92
2023/03/07 09:50:19;;;;;;;;;;;;;;;;;;4979731;28;20445;-93
2023/03/07 09:52:45;;;;;;;;;;;;;;;;;;4968670;28;19964;-93
2023/03/07 09:55:17;;;;;;;;;;;;;;;;;;4966279;28;20538;-93
2023/03/07 09:57:43;;;;;;;;;;;;;;;;;;4982914;28;20223;-94
2023/03/07 10:00:09;;;;;;;;;;;;;;;;;;4963023;28;19922;-91
2023/03/07 10:02:35;;;;;;;;;;;;;;;;;;4962694;28;19929;-91
2023/03/07 10:05:01;;;;;;;;;;;;;;;;;;4967286;28;20281;-93
2023/03/07 10:07:28;;;;;;;;;;;;;;;;;;4962723;28;20400;-92
2023/03/07 10:09:54;;;;;;;;;;;;;;;;;;4979620;28;19925;-92
2023/03/07 10:12:20;;;;;;;;;;;;;;;;;;4982140;28;20290;-92
2023/03/07 10:14:46;;;;;;;;;;;;;;;;;;4981606;28;19925;-92
2023/03/07 10:17:11;;;;;;;;;;;;;;;;;;4998191;28;19937;-92
2023/03/07 10:19:37;;;;;;;;;;;;;;;;;;4998238;28;19921;-92
2023/03/07 10:22:03;;;;;;;;;;;;;;;;;;4981781;28;20012;-92
2023/03/07 10:24:29;;;;;;;;;;;;;;;;;;4997915;28;19971;-92
2023/03/07 10:26:58;;;;;;;;;;;;;;;;;;4980902;28;20024;-93
2023/03/07 10:29:24;;;;;;;;;;;;;;;;;;4982144;28;19921;-93
2023/03/07 10:31:51;;;;;;;;;;;;;;;;;;4983136;28;19981;-96
2023/03/07 10:34:17;;;;;;;;;;;;;;;;;;5001510;28;19972;-94
2023/03/07 10:36:43;;;;;;;;;;;;;;;;;;4981968;28;19921;-95
2023/03/07 10:39:09;;;;;;;;;;;;;;;;;;4984251;28;19932;-95
2023/03/07 10:41:35;;;;;;;;;;;;;;;;;;4981394;28;20374;-93
2023/03/07 10:44:01;;;;;;;;;;;;;;;;;;4982120;28;20373;-94
2023/03/07 10:46:34;;;;;;;;;;;;;;;;;;4982605;28;19922;-93
2023/03/07 10:49:00;;;;;;;;;;;;;;;;;;4981539;28;19964;-95
2023/03/07 10:51:29;;;;;;;;;;;;;;;;;;5000283;28;19965;-94
2023/03/07 10:53:58;;;;;;;;;;;;;;;;;;4981792;28;19975;-95
2023/03/07 10:56:24;;;;;;;;;;;;;;;;;;4981387;28;20412;-96
2023/03/07 10:58:54;;;;;;;;;;;;;;;;;;4998463;28;20018;-96
2023/03/07 11:01:20;;;;;;;;;;;;;;;;;;4981766;28;19921;-93
2023/03/07 11:03:46;;;;;;;;;;;;;;;;;;4982488;28;20012;-93
2023/03/07 11:06:12;;;;;;;;;;;;;;;;;;4981446;28;19960;-93
2023/03/07 11:08:38;;;;;;;;;;;;;;;;;;4980766;28;19928;-92
2023/03/07 11:11:04;;;;;;;;;;;;;;;;;;4976242;28;19922;-93
2023/03/07 11:13:32;;;;;;;;;;;;;;;;;;4961567;28;19929;-93
2023/03/07 11:15:58;;;;;;;;;;;;;;;;;;4961905;28;19929;-91
2023/03/07 11:18:24;;;;;;;;;;;;;;;;;;4961623;28;19926;-94
2023/03/07 11:20:50;;;;;;;;;;;;;;;;;;4961783;28;20281;-93
2023/03/07 11:23:17;;;;;;;;;;;;;;;;;;4962268;28;19931;-92
2023/03/07 11:25:43;;;;;;;;;;;;;;;;;;4961635;28;19922;-94
2023/03/07 11:28:08;;;;;;;;;;;;;;;;;;4961836;28;19922;-93
2023/03/07 11:30:34;;;;;;;;;;;;;;;;;;4961334;28;19961;-94
2023/03/07 11:33:02;;;;;;;;;;;;;;;;;;4961933;28;19965;-95
2023/03/07 11:35:30;;;;;;;;;;;;;;;;;;4962534;28;20012;-94
2023/03/07 11:37:56;;;;;;;;;;;;;;;;;;4962061;28;20020;-96
2023/03/07 11:40:22;;;;;;;;;;;;;;;;;;4979356;28;20048;-96
2023/03/07 11:42:49;;;;;;;;;;;;;;;;;;4963484;28;20405;-94
2023/03/07 11:45:14;;;;;;;;;;;;;;;;;;4977611;28;19929;-95
2023/03/07 11:47:42;;;;;;;;;;;;;;;;;;4961100;28;19981;-94
2023/03/07 11:50:10;;;;;;;;;;;;;;;;;;4961584;28;20294;-94
2023/03/07 11:52:36;;;;;;;;;;;;;;;;;;4966021;28;19925;-96
2023/03/07 11:55:08;;;;;;;;;;;;;;;;;;4962777;28;19933;-92
2023/03/07 11:57:34;;;;;;;;;;;;;;;;;;4964734;28;19922;-92
2023/03/07 12:00:00;;;;;;;;;;;;;;;;;;4972466;28;20050;-94
2023/03/07 12:02:26;;;;;;;;;;;;;;;;;;4973898;28;19930;-94
2023/03/07 12:04:53;;;;;;;;;;;;;;;;;;4974270;28;19922;-93
2023/03/07 12:07:21;;;;;;;;;;;;;;;;;;4977057;28;19926;-95
2023/03/07 12:09:53;;;;;;;;;;;;;;;;;;4960765;28;19972;-95
2023/03/07 12:12:19;;;;;;;;;;;;;;;;;;4961411;28;19977;-94
2023/03/07 12:14:45;;;;;;;;;;;;;;;;;;4976963;28;19922;-94
2023/03/07 12:17:11;;;;;;;;;;;;;;;;;;4961568;28;19925;-95
2023/03/07 12:19:37;;;;;;;;;;;;;;;;;;4961714;28;19922;-95
2023/03/07 12:22:03;;;;;;;;;;;;;;;;;;4960938;28;19926;-96
2023/03/07 12:24:30;;;;;;;;;;;;;;;;;;4961019;28;19922;-96
2023/03/07 12:26:56;;;;;;;;;;;;;;;;;;4961508;28;20389;-96
2023/03/07 12:29:22;;;;;;;;;;;;;;;;;;4961493;28;20016;-96
2023/03/07 12:31:53;;;;;;;;;;;;;;;;;;4987550;28;19921;-95
2023/03/07 12:34:32;;;;;;;;;;;;;;;;;;4993850;28;19965;-95
2023/03/07 12:36:58;;;;;;;;;;;;;;;;;;4962497;28;19933;-94
2023/03/07 12:39:24;;;;;;;;;;;;;;;;;;4961775;28;19922;-95
2023/03/07 12:41:50;;;;;;;;;;;;;;;;;;4977841;28;19922;-94
2023/03/07 12:44:17;;;;;;;;;;;;;;;;;;4961001;28;20290;-95
2023/03/07 12:46:43;;;;;;;;;;;;;;;;;;4961054;28;19934;-95
2023/03/07 12:49:11;;;;;;;;;;;;;;;;;;4960449;28;20009;-95
2023/03/07 12:51:45;;;;;;;;;;;;;;;;;;4978760;28;19985;-94
2023/03/07 12:54:11;;;;;;;;;;;;;;;;;;4960876;28;19926;-94
2023/03/07 12:56:37;;;;;;;;;;;;;;;;;;4960969;28;19930;-94
2023/03/07 12:59:03;;;;;;;;;;;;;;;;;;4960803;28;19961;-94
2023/03/07 13:01:31;;;;;;;;;;;;;;;;;;4961017;28;19929;-96
2023/03/07 13:04:00;;;;;;;;;;;;;;;;;;4960812;28;19972;-96
2023/03/07 13:06:37;;;;;;;;;;;;;;;;;;4977942;28;19929;-96
2023/03/07 13:09:12;;;;;;;;;;;;;;;;;;4969405;28;19926;-96
2023/03/07 13:11:38;;;;;;;;;;;;;;;;;;4965114;28;19925;-91
2023/03/07 13:14:04;;;;;;;;;;;;;;;;;;4976663;28;19928;-92
2023/03/07 13:16:30;;;;;;;;;;;;;;;;;;4964674;28;19940;-93
2023/03/07 13:18:56;;;;;;;;;;;;;;;;;;4960774;28;19926;-93
2023/03/07 13:21:23;;;;;;;;;;;;;;;;;;4960306;28;20290;-92
2023/03/07 13:23:49;;;;;;;;;;;;;;;;;;4975967;28;19929;-93
2023/03/07 13:26:15;;;;;;;;;;;;;;;;;;4977383;28;19922;-94
2023/03/07 13:28:41;;;;;;;;;;;;;;;;;;4958218;28;19922;-92
2023/03/07 13:31:06;;;;;;;;;;;;;;;;;;4959635;28;20293;-92
2023/03/07 13:33:32;;;;;;;;;;;;;;;;;;4959436;28;19922;-92
2023/03/07 13:35:58;;;;;;;;;;;;;;;;;;4959041;28;19926;-90
2023/03/07 13:38:24;;;;;;;;;;;;;;;;;;4960043;28;19928;-91
2023/03/07 13:40:51;;;;;;;;;;;;;;;;;;4964007;28;19922;-94
2023/03/07 13:43:17;;;;;;;;;;;;;;;;;;4960268;28;19922;-93
2023/03/07 13:45:43;;;;;;;;;;;;;;;;;;4959539;28;19921;-93
2023/03/07 13:48:14;;;;;;;;;;;;;;;;;;4959772;28;19972;-93
2023/03/07 13:50:40;;;;;;;;;;;;;;;;;;4959610;28;20020;-93
2023/03/07 13:53:06;;;;;;;;;;;;;;;;;;4959688;28;19996;-94
2023/03/07 13:55:33;;;;;;;;;;;;;;;;;;4959911;28;19949;-92
2023/03/07 13:57:59;;;;;;;;;;;;;;;;;;4959872;28;19922;-93
2023/03/07 14:00:25;;;;;;;;;;;;;;;;;;4959629;28;19976;-92
2023/03/07 14:02:51;;;;;;;;;;;;;;;;;;4963156;28;19972;-93
2023/03/07 14:05:17;;;;;;;;;;;;;;;;;;4962747;28;19922;-95
2023/03/07 14:07:43;;;;;;;;;;;;;;;;;;4963585;28;19925;-93
2023/03/07 14:10:09;;;;;;;;;;;;;;;;;;4963098;28;19921;-93
2023/03/07 14:12:37;;;;;;;;;;;;;;;;;;4962821;28;20039;-95
2023/03/07 14:15:04;;;;;;;;;;;;;;;;;;4978698;28;19921;-92
2023/03/07 14:17:33;;;;;;;;;;;;;;;;;;4963030;28;19949;-91
2023/03/07 14:19:59;;;;;;;;;;;;;;;;;;4963325;28;19921;-95
2023/03/07 14:22:25;;;;;;;;;;;;;;;;;;4978789;28;19921;-93
2023/03/07 14:24:55;;;;;;;;;;;;;;;;;;4963502;28;19937;-92
2023/03/07 14:27:24;;;;;;;;;;;;;;;;;;4963150;28;19922;-91
2023/03/07 14:29:50;;;;;;;;;;;;;;;;;;4978340;28;19922;-92
2023/03/07 14:32:16;;;;;;;;;;;;;;;;;;4962312;28;19975;-93
2023/03/07 14:34:42;;;;;;;;;;;;;;;;;;4979146;28;20016;-90
2023/03/07 14:37:08;;;;;;;;;;;;;;;;;;4961953;28;19926;-91
2023/03/07 14:39:34;;;;;;;;;;;;;;;;;;4977844;28;20306;-92
2023/03/07 14:42:00;;;;;;;;;;;;;;;;;;4977789;28;19968;-91
2023/03/07 14:44:26;;;;;;;;;;;;;;;;;;4962083;28;19933;-91
2023/03/07 14:46:52;;;;;;;;;;;;;;;;;;4961713;28;19929;-91
2023/03/07 14:49:18;;;;;;;;;;;;;;;;;;4961509;28;19933;-90
2023/03/07 14:51:44;;;;;;;;;;;;;;;;;;4961963;28;19922;-91
2023/03/07 14:54:09;;;;;;;;;;;;;;;;;;4961739;28;19922;-90
2023/03/07 14:56:35;;;;;;;;;;;;;;;;;;4961348;28;20287;-90
2023/03/07 14:59:01;;;;;;;;;;;;;;;;;;4962056;28;19921;-95
2023/03/07 15:01:27;;;;;;;;;;;;;;;;;;4962410;28;19922;-94
2023/03/07 15:03:56;;;;;;;;;;;;;;;;;;4962442;28;19929;-94
2023/03/07 15:06:24;;;;;;;;;;;;;;;;;;4962217;28;19922;-94
2023/03/07 15:08:50;;;;;;;;;;;;;;;;;;4962115;28;19986;-95
2023/03/07 15:11:16;;;;;;;;;;;;;;;;;;4961847;28;19928;-92
2023/03/07 15:13:44;;;;;;;;;;;;;;;;;;4962224;28;20294;-93
2023/03/07 15:16:10;;;;;;;;;;;;;;;;;;4961720;28;19936;-93
2023/03/07 15:18:36;;;;;;;;;;;;;;;;;;4961800;28;20004;-93
2023/03/07 15:21:02;;;;;;;;;;;;;;;;;;4961565;28;19973;-91
2023/03/07 15:23:28;;;;;;;;;;;;;;;;;;4978159;28;20270;-92
2023/03/07 15:25:54;;;;;;;;;;;;;;;;;;4977627;28;19984;-92
2023/03/07 15:28:21;;;;;;;;;;;;;;;;;;4961642;28;19973;-92
2023/03/07 15:30:47;;;;;;;;;;;;;;;;;;4977561;28;19976;-93
2023/03/07 15:33:14;;;;;;;;;;;;;;;;;;4962057;28;19929;-92
2023/03/07 15:35:40;;;;;;;;;;;;;;;;;;4961879;28;19926;-95
2023/03/07 15:38:06;;;;;;;;;;;;;;;;;;4961956;28;19932;-93
2023/03/07 15:40:32;;;;;;;;;;;;;;;;;;4961719;28;19921;-93
2023/03/07 15:42:58;;;;;;;;;;;;;;;;;;4961594;28;20281;-92
2023/03/07 15:45:24;;;;;;;;;;;;;;;;;;4961102;28;19922;-93
2023/03/07 15:47:50;;;;;;;;;;;;;;;;;;4961241;28;19948;-93
2023/03/07 15:50:15;;;;;;;;;;;;;;;;;;4960959;28;19926;-92
2023/03/07 15:52:41;;;;;;;;;;;;;;;;;;4976923;28;19922;-91
2023/03/07 15:55:07;;;;;;;;;;;;;;;;;;4961177;28;19930;-94
2023/03/07 15:57:33;;;;;;;;;;;;;;;;;;4962015;28;19921;-93
2023/03/07 15:59:59;;;;;;;;;;;;;;;;;;4961385;28;19971;-94
2023/03/07 16:02:25;;;;;;;;;;;;;;;;;;4961294;28;19921;-93
2023/03/07 16:04:52;;;;;;;;;;;;;;;;;;4960615;28;20134;-94
2023/03/07 16:07:18;;;;;;;;;;;;;;;;;;4960815;28;20386;-93
2023/03/07 16:09:44;;;;;;;;;;;;;;;;;;4961054;28;19922;-93
2023/03/07 16:12:10;;;;;;;;;;;;;;;;;;4961343;28;20015;-92
2023/03/07 16:14:36;;;;;;;;;;;;;;;;;;4977258;28;20279;-93
2023/03/07 16:17:02;;;;;;;;;;;;;;;;;;4960844;28;19941;-95
2023/03/07 16:19:28;;;;;;;;;;;;;;;;;;4977269;28;19922;-92
2023/03/07 16:21:54;;;;;;;;;;;;;;;;;;4960961;28;19926;-94
2023/03/07 16:24:20;;;;;;;;;;;;;;;;;;4960193;28;19925;-94
2023/03/07 16:26:45;;;;;;;;;;;;;;;;;;4961471;28;19972;-96
2023/03/07 16:29:13;;;;;;;;;;;;;;;;;;4963492;28;20004;-91
2023/03/07 16:31:39;;;;;;;;;;;;;;;;;;4964829;28;19971;-96
2023/03/07 16:34:05;;;;;;;;;;;;;;;;;;4976225;28;19922;-93
2023/03/07 16:36:31;;;;;;;;;;;;;;;;;;4961781;28;19925;-91
2023/03/07 16:39:12;;;;;;;;;;;;;;;;;;;;;